createdAt,value
2023-04-28T00:00:59.394Z,15.13
2023-04-28T00:03:28.523Z,15.11
2023-04-28T00:05:57.705Z,15.09
2023-04-28T00:08:27.305Z,15.08
2023-04-28T00:10:55.795Z,15.04
2023-04-28T00:13:24.148Z,15.04
2023-04-28T00:15:54.072Z,15.01
2023-04-28T00:18:23.482Z,14.99
2023-04-28T00:20:51.958Z,14.97
2023-04-28T00:23:20.261Z,14.96
2023-04-28T00:25:53.233Z,14.93
2023-04-28T00:28:33.462Z,14.93
2023-04-28T00:31:11.143Z,14.92
2023-04-28T00:33:39.514Z,14.93
2023-04-28T00:36:08.977Z,14.92
2023-04-28T00:38:37.262Z,14.92
2023-04-28T00:41:05.965Z,14.91
2023-04-28T00:43:44.820Z,14.92
2023-04-28T00:46:22.852Z,14.90
2023-04-28T00:48:51.516Z,14.89
2023-04-28T00:51:19.866Z,14.86
2023-04-28T00:53:48.567Z,14.84
2023-04-28T00:56:17.148Z,14.82
2023-04-28T00:58:45.490Z,14.81
2023-04-28T01:01:15.361Z,14.77
2023-04-28T01:03:44.227Z,14.76
2023-04-28T01:06:13.367Z,14.76
2023-04-28T01:08:42.447Z,14.74
2023-04-28T01:11:14.207Z,14.71
2023-04-28T01:13:42.815Z,14.67
2023-04-28T01:16:11.352Z,14.63
2023-04-28T01:18:48.083Z,14.60
2023-04-28T01:21:16.488Z,14.57
2023-04-28T01:23:48.677Z,14.56
2023-04-28T01:26:16.958Z,14.54
2023-04-28T01:28:45.548Z,14.51
2023-04-28T01:31:13.865Z,14.49
2023-04-28T01:33:42.208Z,14.48
2023-04-28T01:36:11.186Z,14.46
2023-04-28T01:38:39.503Z,14.43
2023-04-28T01:41:09.285Z,14.41
2023-04-28T01:43:37.528Z,14.38
2023-04-28T01:46:06.707Z,14.35
2023-04-28T01:48:35.074Z,14.32
2023-04-28T01:51:03.503Z,14.29
2023-04-28T01:53:31.773Z,14.25
2023-04-28T01:56:00.149Z,14.22
2023-04-28T01:58:29.904Z,14.18
2023-04-28T02:00:58.264Z,14.15
2023-04-28T02:03:28.161Z,14.10
2023-04-28T02:05:56.877Z,14.07
2023-04-28T02:08:25.272Z,14.03
2023-04-28T02:10:53.714Z,13.98
2023-04-28T02:13:22.044Z,13.94
2023-04-28T02:15:51.887Z,13.91
2023-04-28T02:18:20.494Z,13.89
2023-04-28T02:20:48.889Z,13.87
2023-04-28T02:23:17.249Z,13.85
2023-04-28T02:25:45.605Z,13.83
2023-04-28T02:28:14.201Z,13.83
2023-04-28T02:30:42.662Z,13.81
2023-04-28T02:33:12.690Z,13.81
2023-04-28T02:35:41.072Z,13.80
2023-04-28T02:38:09.536Z,13.80
2023-04-28T02:40:37.888Z,13.78
2023-04-28T02:43:06.379Z,13.78
2023-04-28T02:45:34.878Z,13.76
2023-04-28T02:48:04.691Z,13.75
2023-04-28T02:50:34.581Z,13.73
2023-04-28T02:53:02.948Z,13.72
2023-04-28T02:55:32.238Z,13.71
2023-04-28T02:58:00.654Z,13.69
2023-04-28T03:00:29.126Z,13.68
2023-04-28T03:02:57.625Z,13.68
2023-04-28T03:05:26.406Z,13.65
2023-04-28T03:07:56.235Z,13.64
2023-04-28T03:10:24.588Z,13.62
2023-04-28T03:12:52.936Z,13.60
2023-04-28T03:15:21.321Z,13.58
2023-04-28T03:17:49.726Z,13.57
2023-04-28T03:20:18.206Z,13.56
2023-04-28T03:22:46.607Z,13.54
2023-04-28T03:25:16.618Z,13.50
2023-04-28T03:27:44.949Z,13.49
2023-04-28T03:30:14.222Z,13.47
2023-04-28T03:32:42.675Z,13.45
2023-04-28T03:35:11.482Z,13.43
2023-04-28T03:37:39.835Z,13.43
2023-04-28T03:40:10.511Z,13.38
2023-04-28T03:42:40.308Z,13.38
2023-04-28T03:45:10.973Z,13.36
2023-04-28T03:47:39.388Z,13.35
2023-04-28T03:50:09.365Z,13.35
2023-04-28T03:52:37.766Z,13.36
2023-04-28T03:55:07.404Z,13.33
2023-04-28T03:57:36.143Z,13.33
2023-04-28T04:00:07.970Z,13.35
2023-04-28T04:02:36.985Z,13.36
2023-04-28T04:05:06.419Z,13.38
2023-04-28T04:07:34.858Z,13.40
2023-04-28T04:10:04.641Z,13.42
2023-04-28T04:12:33.251Z,13.46
2023-04-28T04:15:01.567Z,13.48
2023-04-28T04:17:31.737Z,13.51
2023-04-28T04:20:00.193Z,13.55
2023-04-28T04:22:28.605Z,13.59
2023-04-28T04:24:57.275Z,13.62
2023-04-28T04:27:26.157Z,13.66
2023-04-28T04:29:54.527Z,13.70
2023-04-28T04:32:23.037Z,13.73
2023-04-28T04:34:52.884Z,13.77
2023-04-28T04:37:21.344Z,13.81
2023-04-28T04:39:49.728Z,13.85
2023-04-28T04:42:25.450Z,13.89
2023-04-28T04:44:54.490Z,13.92
2023-04-28T04:47:23.002Z,13.97
2023-04-28T04:49:53.917Z,14.02
2023-04-28T04:52:22.294Z,14.09
2023-04-28T04:54:50.639Z,14.14
2023-04-28T04:57:19.100Z,14.20
2023-04-28T04:59:47.513Z,14.27
2023-04-28T05:02:16.085Z,14.37
2023-04-28T05:04:44.755Z,14.43
2023-04-28T05:07:14.600Z,14.50
2023-04-28T05:09:42.972Z,14.55
2023-04-28T05:12:11.289Z,14.61
2023-04-28T05:14:39.659Z,14.68
2023-04-28T05:17:08.044Z,14.73
2023-04-28T05:19:36.446Z,14.77
2023-04-28T05:22:04.877Z,14.86
2023-04-28T05:24:34.608Z,14.91
2023-04-28T05:27:03.132Z,14.98
2023-04-28T05:29:31.465Z,15.02
2023-04-28T05:31:59.998Z,15.06
2023-04-28T05:34:28.372Z,15.12
2023-04-28T05:36:56.848Z,15.18
2023-04-28T05:39:25.173Z,15.22
2023-04-28T05:41:54.989Z,15.28
2023-04-28T05:44:23.339Z,15.35
2023-04-28T05:46:51.871Z,15.41
2023-04-28T05:49:20.352Z,15.48
2023-04-28T05:51:48.644Z,15.56
2023-04-28T05:54:17.158Z,15.63
2023-04-28T05:56:45.769Z,15.73
2023-04-28T05:59:15.898Z,15.85
2023-04-28T06:01:44.304Z,16.01
2023-04-28T06:04:13.040Z,16.17
2023-04-28T06:06:41.618Z,16.30
2023-04-28T06:09:10.180Z,16.42
2023-04-28T06:11:38.549Z,16.50
2023-04-28T06:14:06.935Z,16.55
2023-04-28T06:16:36.839Z,16.60
2023-04-28T06:19:05.790Z,16.67
2023-04-28T06:21:34.322Z,16.77
2023-04-28T06:24:02.789Z,16.94
2023-04-28T06:26:31.476Z,17.09
2023-04-28T06:28:59.836Z,17.27
2023-04-28T06:31:28.272Z,17.47
2023-04-28T06:33:57.993Z,17.67
2023-04-28T06:36:26.838Z,17.83
2023-04-28T06:38:55.801Z,18.00
2023-04-28T06:41:24.214Z,18.14
2023-04-28T06:43:52.542Z,18.25
2023-04-28T06:46:20.910Z,18.39
2023-04-28T06:48:49.450Z,18.55
2023-04-28T06:51:19.188Z,18.72
2023-04-28T06:53:47.613Z,18.84
2023-04-28T06:56:16.052Z,18.95
2023-04-28T06:58:44.386Z,19.03
2023-04-28T07:01:12.741Z,19.04
2023-04-28T07:03:41.160Z,19.03
2023-04-28T07:06:10.101Z,19.01
2023-04-28T07:08:39.913Z,19.06
2023-04-28T07:11:08.309Z,19.10
2023-04-28T07:13:36.722Z,19.13
2023-04-28T07:16:06.097Z,19.13
2023-04-28T07:18:34.611Z,19.15
2023-04-28T07:21:05.304Z,19.20
2023-04-28T07:23:34.170Z,19.25
2023-04-28T07:26:03.945Z,19.29
2023-04-28T07:28:32.547Z,19.35
2023-04-28T07:31:00.849Z,19.41
2023-04-28T07:33:29.241Z,19.48
2023-04-28T07:35:57.881Z,19.56
2023-04-28T07:38:26.319Z,19.69
2023-04-28T07:40:54.727Z,19.81
2023-04-28T07:43:24.554Z,19.91
2023-04-28T07:45:53.233Z,19.98
2023-04-28T07:48:21.751Z,20.09
2023-04-28T07:50:50.153Z,20.16
2023-04-28T07:53:18.764Z,20.26
2023-04-28T07:55:47.211Z,20.33
2023-04-28T07:58:15.733Z,20.41
2023-04-28T08:00:45.689Z,20.48
2023-04-28T08:03:14.446Z,20.54
2023-04-28T08:05:43.062Z,20.55
2023-04-28T08:08:11.612Z,20.56
2023-04-28T08:10:42.123Z,20.57
2023-04-28T08:13:10.686Z,20.62
2023-04-28T08:15:39.206Z,20.74
2023-04-28T08:18:09.168Z,20.92
2023-04-28T08:20:37.523Z,21.10
2023-04-28T08:23:05.917Z,21.21
2023-04-28T08:25:34.411Z,21.38
2023-04-28T08:28:03.739Z,21.57
2023-04-28T08:30:32.128Z,21.75
2023-04-28T08:33:00.543Z,21.87
2023-04-28T08:35:31.069Z,21.96
2023-04-28T08:37:59.629Z,22.07
2023-04-28T08:40:29.807Z,22.18
2023-04-28T08:42:58.551Z,22.22
2023-04-28T08:45:28.487Z,22.23
2023-04-28T08:48:00.277Z,22.29
2023-04-28T08:50:32.690Z,22.34
2023-04-28T08:53:05.823Z,22.49
2023-04-28T08:55:35.249Z,22.73
2023-04-28T08:58:05.910Z,22.91
2023-04-28T09:00:34.420Z,23.01
2023-04-28T09:03:03.098Z,23.12
2023-04-28T09:05:33.336Z,23.23
2023-04-28T09:08:03.985Z,23.36
2023-04-28T09:10:34.298Z,23.50
2023-04-28T09:13:03.011Z,23.62
2023-04-28T09:15:34.536Z,23.73
2023-04-28T09:18:04.387Z,23.82
2023-04-28T09:20:35.974Z,23.93
2023-04-28T09:23:19.983Z,23.98
2023-04-28T09:26:03.420Z,23.99
2023-04-28T09:28:32.287Z,24.06
2023-04-28T09:31:01.373Z,24.19
2023-04-28T09:33:29.944Z,24.36
2023-04-28T09:35:59.836Z,24.53
2023-04-28T09:38:28.265Z,24.72
2023-04-28T09:41:01.922Z,24.86
2023-04-28T09:43:32.399Z,24.96
2023-04-28T09:46:02.852Z,25.04
2023-04-28T09:48:34.009Z,25.12
2023-04-28T09:51:06.287Z,25.20
2023-04-28T09:53:36.164Z,25.26
2023-04-28T09:56:06.552Z,25.27
2023-04-28T09:58:41.472Z,25.37
2023-04-28T10:01:12.961Z,25.52
2023-04-28T10:03:42.818Z,25.66
2023-04-28T10:06:12.972Z,25.77
2023-04-28T10:08:41.870Z,25.86
2023-04-28T10:11:11.055Z,25.95
2023-04-28T10:13:39.604Z,26.03
2023-04-28T10:16:09.504Z,26.15
2023-04-28T10:18:39.062Z,26.32
2023-04-28T10:21:09.537Z,26.50
2023-04-28T10:24:10.129Z,26.60
2023-04-28T10:27:05.837Z,26.74
2023-04-28T10:29:35.662Z,26.92
2023-04-28T10:32:18.405Z,27.03
2023-04-28T10:34:47.158Z,27.20
2023-04-28T10:37:17.116Z,27.30
2023-04-28T10:40:34.793Z,27.43
2023-04-28T10:43:04.246Z,27.57
2023-04-28T10:46:10.176Z,27.68
2023-04-28T10:48:58.000Z,27.84
2023-04-28T10:51:36.365Z,28.05
2023-04-28T10:54:20.689Z,28.15
2023-04-28T10:57:22.996Z,28.29
2023-04-28T10:59:52.398Z,28.52
2023-04-28T11:02:45.015Z,28.66
2023-04-28T11:05:19.303Z,28.88
2023-04-28T11:08:33.882Z,29.08
2023-04-28T11:11:20.896Z,29.31
2023-04-28T11:13:51.522Z,29.53
2023-04-28T11:16:23.322Z,29.72
2023-04-28T11:19:06.165Z,30.06
2023-04-28T11:21:34.958Z,30.47
2023-04-28T11:24:12.665Z,30.85
2023-04-28T11:26:41.671Z,31.21
2023-04-28T11:29:12.493Z,31.55
2023-04-28T11:31:40.945Z,31.90
2023-04-28T11:34:14.514Z,32.15
2023-04-28T11:36:43.535Z,32.33
2023-04-28T11:39:14.096Z,32.30
2023-04-28T11:41:44.176Z,32.24
2023-04-28T11:44:17.495Z,32.07
2023-04-28T11:46:53.828Z,31.79
2023-04-28T11:49:24.596Z,31.55
2023-04-28T11:51:53.692Z,31.32
2023-04-28T11:54:23.979Z,31.13
2023-04-28T11:56:53.480Z,31.04
2023-04-28T11:59:27.207Z,30.95
2023-04-28T12:01:59.433Z,30.94
2023-04-28T12:04:30.151Z,30.97
2023-04-28T12:07:10.413Z,30.90
2023-04-28T12:09:41.141Z,30.85
2023-04-28T12:12:12.348Z,30.74
2023-04-28T12:14:59.516Z,30.57
2023-04-28T12:17:29.256Z,30.45
2023-04-28T12:19:59.031Z,30.39
2023-04-28T12:22:27.763Z,30.33
2023-04-28T12:25:08.386Z,30.12
2023-04-28T12:27:40.505Z,29.92
2023-04-28T12:30:29.423Z,29.60
2023-04-28T12:32:58.610Z,29.40
2023-04-28T12:35:28.892Z,29.17
2023-04-28T12:37:59.175Z,29.00
2023-04-28T12:40:27.937Z,28.77
2023-04-28T12:42:56.972Z,28.46
2023-04-28T12:45:25.543Z,28.14
2023-04-28T12:47:57.020Z,27.87
2023-04-28T12:50:25.780Z,27.64
2023-04-28T12:52:56.270Z,27.50
2023-04-28T12:55:24.803Z,27.36
2023-04-28T12:57:53.491Z,27.26
2023-04-28T13:00:23.643Z,27.09
2023-04-28T13:02:53.358Z,26.92
2023-04-28T13:05:23.524Z,26.68
2023-04-28T13:07:52.584Z,26.43
2023-04-28T13:10:22.433Z,26.21
2023-04-28T13:12:50.891Z,26.01
2023-04-28T13:15:19.374Z,25.83
2023-04-28T13:17:49.249Z,25.69
2023-04-28T13:20:18.034Z,25.59
2023-04-28T13:22:47.849Z,25.55
2023-04-28T13:25:16.658Z,25.49
2023-04-28T13:27:45.121Z,25.36
2023-04-28T13:30:15.006Z,25.25
2023-04-28T13:32:43.377Z,25.13
2023-04-28T13:35:12.091Z,25.05
2023-04-28T13:37:45.717Z,25.02
2023-04-28T13:40:15.664Z,24.97
2023-04-28T13:42:44.325Z,24.88
2023-04-28T13:45:13.997Z,24.85
2023-04-28T13:47:44.308Z,24.86
2023-04-28T13:50:12.871Z,24.87
2023-04-28T13:52:41.507Z,24.95
2023-04-28T13:55:11.097Z,24.98
2023-04-28T13:57:41.126Z,24.96
2023-04-28T14:00:11.737Z,24.91
2023-04-28T14:02:40.483Z,24.89
2023-04-28T14:05:10.211Z,24.85
2023-04-28T14:07:38.849Z,24.85
2023-04-28T14:10:08.121Z,24.83
2023-04-28T14:12:36.823Z,24.79
2023-04-28T14:15:08.100Z,24.74
2023-04-28T14:17:37.017Z,24.71
2023-04-28T14:20:07.140Z,24.65
2023-04-28T14:22:35.648Z,24.59
2023-04-28T14:25:04.111Z,24.48
2023-04-28T14:27:33.105Z,24.37
2023-04-28T14:30:02.065Z,24.25
2023-04-28T14:32:31.886Z,24.10
2023-04-28T14:35:01.108Z,23.96
2023-04-28T14:37:29.597Z,23.81
2023-04-28T14:39:57.992Z,23.64
2023-04-28T14:42:32.122Z,23.44
2023-04-28T14:45:01.489Z,23.27
2023-04-28T14:47:31.452Z,23.10
2023-04-28T14:50:00.307Z,22.95
2023-04-28T14:52:29.241Z,22.81
2023-04-28T14:54:59.035Z,22.68
2023-04-28T14:57:27.972Z,22.55
2023-04-28T14:59:56.514Z,22.43
2023-04-28T15:02:28.404Z,22.31
2023-04-28T15:04:59.063Z,22.19
2023-04-28T15:07:31.237Z,22.10
2023-04-28T15:09:59.808Z,22.01
2023-04-28T15:12:30.405Z,22.00
2023-04-28T15:14:59.141Z,22.02
2023-04-28T15:17:27.825Z,22.07
2023-04-28T15:19:57.935Z,22.13
2023-04-28T15:22:26.390Z,22.19
2023-04-28T15:24:55.902Z,22.23
2023-04-28T15:27:24.434Z,22.26
2023-04-28T15:29:53.038Z,22.29
2023-04-28T15:32:21.585Z,22.31
2023-04-28T15:34:50.450Z,22.33
2023-04-28T15:37:43.959Z,22.31
2023-04-28T15:40:14.652Z,22.28
2023-04-28T15:42:48.791Z,22.21
2023-04-28T15:45:18.481Z,22.12
2023-04-28T15:47:50.442Z,22.04
2023-04-28T15:50:20.404Z,21.91
2023-04-28T15:52:51.300Z,21.78
2023-04-28T15:55:22.343Z,21.66
2023-04-28T15:57:52.467Z,21.56
2023-04-28T16:00:21.027Z,21.48
2023-04-28T16:02:49.810Z,21.37
2023-04-28T16:05:18.371Z,21.28
2023-04-28T16:07:47.572Z,21.19
2023-04-28T16:10:18.101Z,21.07
2023-04-28T16:12:46.455Z,20.95
2023-04-28T16:15:15.295Z,20.86
2023-04-28T16:17:44.446Z,20.76
2023-04-28T16:20:13.732Z,20.68
2023-04-28T16:22:43.175Z,20.63
2023-04-28T16:25:13.039Z,20.57
2023-04-28T16:27:42.867Z,20.52
2023-04-28T16:30:12.189Z,20.49
2023-04-28T16:32:41.066Z,20.42
2023-04-28T16:35:15.154Z,20.41
2023-04-28T16:37:44.476Z,20.38
2023-04-28T16:40:14.179Z,20.32
2023-04-28T16:42:45.153Z,20.24
2023-04-28T16:45:14.382Z,20.17
2023-04-28T16:47:43.938Z,20.09
2023-04-28T16:50:14.800Z,19.99
2023-04-28T16:52:43.415Z,19.90
2023-04-28T16:55:12.185Z,19.84
2023-04-28T16:57:40.533Z,19.79
2023-04-28T17:00:12.526Z,19.73
2023-04-28T17:02:41.077Z,19.69
2023-04-28T17:05:11.166Z,19.65
2023-04-28T17:07:39.489Z,19.65
2023-04-28T17:10:09.414Z,19.62
2023-04-28T17:12:37.860Z,19.59
2023-04-28T17:15:09.764Z,19.58
2023-04-28T17:17:38.132Z,19.58
2023-04-28T17:20:08.289Z,19.57
2023-04-28T17:22:36.923Z,19.56
2023-04-28T17:25:07.009Z,19.52
2023-04-28T17:27:35.518Z,19.53
2023-04-28T17:30:04.342Z,19.50
2023-04-28T17:32:34.547Z,19.46
2023-04-28T17:35:03.047Z,19.43
2023-04-28T17:37:33.588Z,19.41
2023-04-28T17:40:02.369Z,19.37
2023-04-28T17:42:32.150Z,19.35
2023-04-28T17:45:00.852Z,19.32
2023-04-28T17:47:29.365Z,19.31
2023-04-28T17:49:59.374Z,19.31
2023-04-28T17:52:28.004Z,19.32
2023-04-28T17:54:57.431Z,19.33
2023-04-28T17:57:26.783Z,19.35
2023-04-28T17:59:55.618Z,19.37
2023-04-28T18:02:24.149Z,19.39
2023-04-28T18:04:53.050Z,19.40
2023-04-28T18:07:23.317Z,19.41
2023-04-28T18:09:53.032Z,19.41
2023-04-28T18:12:21.688Z,19.41
2023-04-28T18:14:50.601Z,19.42
2023-04-28T18:17:19.422Z,19.42
2023-04-28T18:19:51.348Z,19.41
2023-04-28T18:22:20.281Z,19.43
2023-04-28T18:24:51.408Z,19.45
2023-04-28T18:27:21.511Z,19.46
2023-04-28T18:29:51.291Z,19.46
2023-04-28T18:32:21.177Z,19.45
2023-04-28T18:34:50.728Z,19.45
2023-04-28T18:37:20.898Z,19.46
2023-04-28T18:39:51.620Z,19.46
2023-04-28T18:42:21.257Z,19.48
2023-04-28T18:44:53.767Z,19.47
2023-04-28T18:47:24.126Z,19.51
2023-04-28T18:49:53.726Z,19.53
2023-04-28T18:52:24.307Z,19.57
2023-04-28T18:54:55.405Z,19.57
2023-04-28T18:57:24.446Z,19.60
2023-04-28T18:59:53.285Z,19.61
2023-04-28T19:02:23.288Z,19.64
2023-04-28T19:04:53.482Z,19.67
2023-04-28T19:07:22.537Z,19.69
2023-04-28T19:09:52.036Z,19.71
2023-04-28T19:12:22.572Z,19.71
2023-04-28T19:14:51.940Z,19.72
2023-04-28T19:17:21.685Z,19.72
2023-04-28T19:19:51.459Z,19.72
2023-04-28T19:22:38.171Z,19.72
2023-04-28T19:25:08.505Z,19.73
2023-04-28T19:27:43.382Z,19.75
2023-04-28T19:30:14.620Z,19.78
2023-04-28T19:32:44.344Z,19.78
2023-04-28T19:35:13.618Z,19.79
2023-04-28T19:37:43.612Z,19.79
2023-04-28T19:40:16.415Z,19.77
2023-04-28T19:42:46.645Z,19.78
2023-04-28T19:45:17.250Z,19.78
2023-04-28T19:47:45.786Z,19.77
2023-04-28T19:50:16.299Z,19.77
2023-04-28T19:52:45.661Z,19.74
2023-04-28T19:55:18.869Z,19.73
2023-04-28T19:57:49.734Z,19.70
2023-04-28T20:00:20.857Z,19.67
2023-04-28T20:02:53.183Z,19.67
2023-04-28T20:05:22.833Z,19.62
2023-04-28T20:07:55.313Z,19.59
2023-04-28T20:10:26.059Z,19.57
2023-04-28T20:12:57.115Z,19.55
2023-04-28T20:15:25.771Z,19.54
2023-04-28T20:17:55.584Z,19.55
2023-04-28T20:20:24.866Z,19.56
2023-04-28T20:22:53.689Z,19.57
2023-04-28T20:25:22.815Z,19.57
2023-04-28T20:27:52.049Z,19.59
2023-04-28T20:30:22.797Z,19.59
2023-04-28T20:32:51.782Z,19.60
2023-04-28T20:35:23.120Z,19.62
2023-04-28T20:37:51.560Z,19.63
2023-04-28T20:40:20.005Z,19.64
2023-04-28T20:42:49.585Z,19.65
2023-04-28T20:45:18.265Z,19.67
2023-04-28T20:47:48.124Z,19.67
2023-04-28T20:50:16.905Z,19.69
2023-04-28T20:52:45.731Z,19.69
2023-04-28T20:55:14.162Z,19.69
2023-04-28T20:57:42.533Z,19.72
2023-04-28T21:00:12.991Z,19.70
2023-04-28T21:02:41.537Z,19.69
2023-04-28T21:05:11.807Z,19.65
2023-04-28T21:07:40.209Z,19.64
2023-04-28T21:10:10.705Z,19.63
2023-04-28T21:12:39.319Z,19.63
2023-04-28T21:15:09.376Z,19.61
2023-04-28T21:17:37.776Z,19.61
2023-04-28T21:20:07.829Z,19.58
2023-04-28T21:22:37.636Z,19.54
2023-04-28T21:25:08.438Z,19.50
2023-04-28T21:27:37.027Z,19.48
2023-04-28T21:30:06.605Z,19.47
2023-04-28T21:32:35.060Z,19.48
2023-04-28T21:35:03.462Z,19.49
2023-04-28T21:37:32.790Z,19.51
2023-04-28T21:40:02.619Z,19.48
2023-04-28T21:42:32.116Z,19.49
2023-04-28T21:45:00.476Z,19.49
2023-04-28T21:47:29.834Z,19.49
2023-04-28T21:49:58.342Z,19.46
2023-04-28T21:52:26.913Z,19.44
2023-04-28T21:54:55.292Z,19.42
2023-04-28T21:57:25.030Z,19.42
2023-04-28T21:59:53.423Z,19.41
2023-04-28T22:02:22.203Z,19.42
2023-04-28T22:04:50.897Z,19.45
2023-04-28T22:07:19.229Z,19.47
2023-04-28T22:09:47.601Z,19.49
2023-04-28T22:12:15.944Z,19.50
2023-04-28T22:14:45.755Z,19.50
2023-04-28T22:17:14.211Z,19.51
2023-04-28T22:19:42.797Z,19.48
2023-04-28T22:22:11.177Z,19.47
2023-04-28T22:24:39.713Z,19.43
2023-04-28T22:27:08.783Z,19.39
2023-04-28T22:29:37.242Z,19.36
2023-04-28T22:32:08.410Z,19.33
2023-04-28T22:34:36.839Z,19.33
2023-04-28T22:37:05.686Z,19.31
2023-04-28T22:39:34.064Z,19.31
2023-04-28T22:42:02.906Z,19.32
2023-04-28T22:44:31.384Z,19.35
2023-04-28T22:47:00.109Z,19.39
2023-04-28T22:49:30.616Z,19.43
2023-04-28T22:51:59.976Z,19.46
2023-04-28T22:54:28.457Z,19.51
2023-04-28T22:56:56.965Z,19.53
2023-04-28T22:59:26.157Z,19.55
2023-04-28T23:01:55.708Z,19.58
2023-04-28T23:04:24.375Z,19.58
2023-04-28T23:06:54.146Z,19.58
2023-04-28T23:09:22.600Z,19.59
2023-04-28T23:11:51.050Z,19.61
2023-04-28T23:14:19.476Z,19.63
2023-04-28T23:16:47.851Z,19.65
2023-04-28T23:19:16.815Z,19.67
2023-04-28T23:21:46.454Z,19.69
2023-04-28T23:24:16.368Z,19.69
2023-04-28T23:26:44.762Z,19.69
2023-04-28T23:29:13.217Z,19.70
2023-04-28T23:31:41.612Z,19.73
2023-04-28T23:34:10.232Z,19.73
2023-04-28T23:36:38.920Z,19.72
2023-04-28T23:39:07.856Z,19.71
2023-04-28T23:41:37.635Z,19.73
2023-04-28T23:44:06.085Z,19.74
2023-04-28T23:46:34.504Z,19.74
2023-04-28T23:49:03.757Z,19.73
2023-04-28T23:51:32.962Z,19.73
2023-04-28T23:54:01.611Z,19.72
2023-04-28T23:56:30.030Z,19.74
2023-04-28T23:58:59.714Z,19.73
